sensor_id;sensor_type;location;lat;lon;timestamp;P1;durP1;ratioP1;P2;durP2;ratioP2
74777;SDS011;63298;53.164;8.610;2023-08-12T00:01:06;13.32;;;4.38;;
74777;SDS011;63298;53.164;8.610;2023-08-12T00:03:32;14.13;;;4.43;;
74777;SDS011;63298;53.164;8.610;2023-08-12T00:05:57;10.75;;;3.95;;
74777;SDS011;63298;53.164;8.610;2023-08-12T00:08:23;10.55;;;3.63;;
74777;SDS011;63298;53.164;8.610;2023-08-12T00:10:48;7.13;;;3.65;;
74777;SDS011;63298;53.164;8.610;2023-08-12T00:13:14;11.20;;;4.03;;
74777;SDS011;63298;53.164;8.610;2023-08-12T00:15:39;12.13;;;4.43;;
74777;SDS011;63298;53.164;8.610;2023-08-12T00:18:04;11.63;;;3.97;;
74777;SDS011;63298;53.164;8.610;2023-08-12T00:20:30;8.48;;;3.47;;
74777;SDS011;63298;53.164;8.610;2023-08-12T00:22:55;10.68;;;4.65;;
74777;SDS011;63298;53.164;8.610;2023-08-12T00:25:20;10.48;;;4.65;;
74777;SDS011;63298;53.164;8.610;2023-08-12T00:27:45;14.75;;;5.00;;
74777;SDS011;63298;53.164;8.610;2023-08-12T00:30:11;15.77;;;3.97;;
74777;SDS011;63298;53.164;8.610;2023-08-12T00:32:36;10.60;;;4.25;;
74777;SDS011;63298;53.164;8.610;2023-08-12T00:35:02;11.63;;;4.70;;
74777;SDS011;63298;53.164;8.610;2023-08-12T00:37:27;11.20;;;4.35;;
74777;SDS011;63298;53.164;8.610;2023-08-12T00:39:53;14.20;;;4.78;;
74777;SDS011;63298;53.164;8.610;2023-08-12T00:42:18;19.60;;;4.10;;
74777;SDS011;63298;53.164;8.610;2023-08-12T00:44:43;10.85;;;4.10;;
74777;SDS011;63298;53.164;8.610;2023-08-12T00:47:09;9.82;;;3.65;;
74777;SDS011;63298;53.164;8.610;2023-08-12T00:49:34;9.15;;;4.20;;
74777;SDS011;63298;53.164;8.610;2023-08-12T00:51:59;11.02;;;4.30;;
74777;SDS011;63298;53.164;8.610;2023-08-12T00:54:25;8.13;;;3.78;;
74777;SDS011;63298;53.164;8.610;2023-08-12T00:56:51;8.05;;;3.95;;
74777;SDS011;63298;53.164;8.610;2023-08-12T00:59:18;10.63;;;4.35;;
74777;SDS011;63298;53.164;8.610;2023-08-12T01:01:45;11.32;;;4.70;;
74777;SDS011;63298;53.164;8.610;2023-08-12T01:04:11;8.52;;;3.70;;
74777;SDS011;63298;53.164;8.610;2023-08-12T01:06:36;9.30;;;4.22;;
74777;SDS011;63298;53.164;8.610;2023-08-12T01:09:01;7.75;;;3.55;;
74777;SDS011;63298;53.164;8.610;2023-08-12T01:11:28;16.92;;;4.00;;
74777;SDS011;63298;53.164;8.610;2023-08-12T01:14:10;10.52;;;4.45;;
74777;SDS011;63298;53.164;8.610;2023-08-12T01:16:40;11.48;;;4.35;;
74777;SDS011;63298;53.164;8.610;2023-08-12T01:19:19;13.27;;;4.60;;
74777;SDS011;63298;53.164;8.610;2023-08-12T01:21:54;14.60;;;3.90;;
74777;SDS011;63298;53.164;8.610;2023-08-12T01:24:24;10.30;;;4.97;;
74777;SDS011;63298;53.164;8.610;2023-08-12T01:26:49;11.90;;;5.35;;
74777;SDS011;63298;53.164;8.610;2023-08-12T01:29:15;12.98;;;5.05;;
74777;SDS011;63298;53.164;8.610;2023-08-12T01:31:43;10.55;;;5.25;;
74777;SDS011;63298;53.164;8.610;2023-08-12T01:34:26;11.73;;;4.97;;
74777;SDS011;63298;53.164;8.610;2023-08-12T01:36:57;10.48;;;4.93;;
74777;SDS011;63298;53.164;8.610;2023-08-12T01:39:25;10.30;;;5.47;;
74777;SDS011;63298;53.164;8.610;2023-08-12T01:41:51;10.52;;;5.75;;
74777;SDS011;63298;53.164;8.610;2023-08-12T01:44:19;8.73;;;5.97;;
74777;SDS011;63298;53.164;8.610;2023-08-12T01:46:44;9.13;;;5.82;;
74777;SDS011;63298;53.164;8.610;2023-08-12T01:49:09;10.07;;;6.07;;
74777;SDS011;63298;53.164;8.610;2023-08-12T01:51:35;13.30;;;6.75;;
74777;SDS011;63298;53.164;8.610;2023-08-12T01:54:00;10.68;;;6.97;;
74777;SDS011;63298;53.164;8.610;2023-08-12T01:56:26;13.02;;;7.13;;
74777;SDS011;63298;53.164;8.610;2023-08-12T01:58:51;17.40;;;6.78;;
74777;SDS011;63298;53.164;8.610;2023-08-12T02:01:16;12.27;;;7.43;;
74777;SDS011;63298;53.164;8.610;2023-08-12T02:03:42;19.88;;;7.95;;
74777;SDS011;63298;53.164;8.610;2023-08-12T02:06:07;12.27;;;8.05;;
74777;SDS011;63298;53.164;8.610;2023-08-12T02:08:32;14.00;;;8.90;;
74777;SDS011;63298;53.164;8.610;2023-08-12T02:10:57;16.05;;;9.13;;
74777;SDS011;63298;53.164;8.610;2023-08-12T02:13:23;16.00;;;9.02;;
74777;SDS011;63298;53.164;8.610;2023-08-12T02:15:48;14.95;;;8.75;;
74777;SDS011;63298;53.164;8.610;2023-08-12T02:18:13;20.05;;;9.27;;
74777;SDS011;63298;53.164;8.610;2023-08-12T02:20:40;18.65;;;9.13;;
74777;SDS011;63298;53.164;8.610;2023-08-12T02:23:06;15.05;;;8.02;;
74777;SDS011;63298;53.164;8.610;2023-08-12T02:25:31;17.45;;;8.30;;
74777;SDS011;63298;53.164;8.610;2023-08-12T02:27:56;19.17;;;9.15;;
74777;SDS011;63298;53.164;8.610;2023-08-12T02:30:21;16.23;;;9.10;;
74777;SDS011;63298;53.164;8.610;2023-08-12T02:32:47;21.63;;;9.75;;
74777;SDS011;63298;53.164;8.610;2023-08-12T02:35:12;20.35;;;8.98;;
74777;SDS011;63298;53.164;8.610;2023-08-12T02:37:37;16.95;;;9.93;;
74777;SDS011;63298;53.164;8.610;2023-08-12T02:40:03;12.95;;;9.13;;
74777;SDS011;63298;53.164;8.610;2023-08-12T02:42:29;14.07;;;8.55;;
74777;SDS011;63298;53.164;8.610;2023-08-12T02:44:54;14.85;;;8.88;;
74777;SDS011;63298;53.164;8.610;2023-08-12T02:47:20;22.65;;;10.07;;
74777;SDS011;63298;53.164;8.610;2023-08-12T02:49:46;16.60;;;8.80;;
74777;SDS011;63298;53.164;8.610;2023-08-12T02:52:11;13.77;;;9.10;;
74777;SDS011;63298;53.164;8.610;2023-08-12T02:54:37;16.00;;;8.43;;
74777;SDS011;63298;53.164;8.610;2023-08-12T02:57:02;17.60;;;8.93;;
74777;SDS011;63298;53.164;8.610;2023-08-12T02:59:27;19.88;;;9.20;;
74777;SDS011;63298;53.164;8.610;2023-08-12T03:01:53;14.68;;;8.75;;
74777;SDS011;63298;53.164;8.610;2023-08-12T03:04:18;17.35;;;9.70;;
74777;SDS011;63298;53.164;8.610;2023-08-12T03:06:43;14.73;;;9.20;;
74777;SDS011;63298;53.164;8.610;2023-08-12T03:09:09;19.27;;;9.85;;
74777;SDS011;63298;53.164;8.610;2023-08-12T03:11:34;22.77;;;10.48;;
74777;SDS011;63298;53.164;8.610;2023-08-12T03:14:00;20.13;;;10.07;;
74777;SDS011;63298;53.164;8.610;2023-08-12T03:16:25;17.67;;;9.65;;
74777;SDS011;63298;53.164;8.610;2023-08-12T03:18:50;14.93;;;8.50;;
74777;SDS011;63298;53.164;8.610;2023-08-12T03:21:16;16.77;;;9.05;;
74777;SDS011;63298;53.164;8.610;2023-08-12T03:23:42;14.50;;;8.73;;
74777;SDS011;63298;53.164;8.610;2023-08-12T03:26:08;19.58;;;9.68;;
74777;SDS011;63298;53.164;8.610;2023-08-12T03:28:33;16.63;;;8.93;;
74777;SDS011;63298;53.164;8.610;2023-08-12T03:30:59;18.92;;;8.95;;
74777;SDS011;63298;53.164;8.610;2023-08-12T03:33:24;13.25;;;8.70;;
74777;SDS011;63298;53.164;8.610;2023-08-12T03:35:50;13.88;;;8.25;;
74777;SDS011;63298;53.164;8.610;2023-08-12T03:38:15;14.68;;;8.60;;
74777;SDS011;63298;53.164;8.610;2023-08-12T03:40:41;18.75;;;9.02;;
74777;SDS011;63298;53.164;8.610;2023-08-12T03:43:07;10.80;;;7.07;;
74777;SDS011;63298;53.164;8.610;2023-08-12T03:45:32;11.30;;;7.03;;
74777;SDS011;63298;53.164;8.610;2023-08-12T03:48:04;15.05;;;7.70;;
74777;SDS011;63298;53.164;8.610;2023-08-12T03:50:32;11.02;;;7.32;;
74777;SDS011;63298;53.164;8.610;2023-08-12T03:52:58;10.75;;;7.57;;
74777;SDS011;63298;53.164;8.610;2023-08-12T03:55:24;11.55;;;7.00;;
74777;SDS011;63298;53.164;8.610;2023-08-12T03:57:49;12.25;;;7.43;;
74777;SDS011;63298;53.164;8.610;2023-08-12T04:00:14;14.75;;;8.15;;
74777;SDS011;63298;53.164;8.610;2023-08-12T04:02:40;16.38;;;8.27;;
74777;SDS011;63298;53.164;8.610;2023-08-12T04:05:05;18.45;;;9.20;;
74777;SDS011;63298;53.164;8.610;2023-08-12T04:07:31;13.60;;;8.63;;
74777;SDS011;63298;53.164;8.610;2023-08-12T04:09:57;12.68;;;8.38;;
74777;SDS011;63298;53.164;8.610;2023-08-12T04:12:22;12.95;;;8.40;;
74777;SDS011;63298;53.164;8.610;2023-08-12T04:14:47;11.98;;;7.80;;
74777;SDS011;63298;53.164;8.610;2023-08-12T04:17:12;14.75;;;8.55;;
74777;SDS011;63298;53.164;8.610;2023-08-12T04:19:38;13.82;;;8.68;;
74777;SDS011;63298;53.164;8.610;2023-08-12T04:22:03;13.60;;;8.30;;
74777;SDS011;63298;53.164;8.610;2023-08-12T04:24:28;12.25;;;8.70;;
74777;SDS011;63298;53.164;8.610;2023-08-12T04:26:53;11.98;;;8.32;;
74777;SDS011;63298;53.164;8.610;2023-08-12T04:29:19;15.70;;;9.05;;
74777;SDS011;63298;53.164;8.610;2023-08-12T04:31:44;13.32;;;8.20;;
74777;SDS011;63298;53.164;8.610;2023-08-12T04:34:09;16.45;;;9.63;;
74777;SDS011;63298;53.164;8.610;2023-08-12T04:36:35;18.77;;;9.18;;
74777;SDS011;63298;53.164;8.610;2023-08-12T04:39:00;15.63;;;8.98;;
74777;SDS011;63298;53.164;8.610;2023-08-12T04:41:25;14.70;;;9.57;;
74777;SDS011;63298;53.164;8.610;2023-08-12T04:43:51;14.68;;;8.65;;
74777;SDS011;63298;53.164;8.610;2023-08-12T04:46:16;15.27;;;9.30;;
74777;SDS011;63298;53.164;8.610;2023-08-12T04:48:41;16.00;;;8.43;;
74777;SDS011;63298;53.164;8.610;2023-08-12T04:51:06;12.15;;;8.05;;
74777;SDS011;63298;53.164;8.610;2023-08-12T04:53:32;12.10;;;7.68;;
74777;SDS011;63298;53.164;8.610;2023-08-12T04:55:57;12.20;;;8.27;;
74777;SDS011;63298;53.164;8.610;2023-08-12T04:58:23;14.02;;;8.10;;
74777;SDS011;63298;53.164;8.610;2023-08-12T05:00:48;12.50;;;8.38;;
74777;SDS011;63298;53.164;8.610;2023-08-12T05:03:14;13.05;;;7.57;;
74777;SDS011;63298;53.164;8.610;2023-08-12T05:05:39;11.45;;;7.78;;
74777;SDS011;63298;53.164;8.610;2023-08-12T05:08:04;12.00;;;7.93;;
74777;SDS011;63298;53.164;8.610;2023-08-12T05:10:30;13.55;;;8.38;;
74777;SDS011;63298;53.164;8.610;2023-08-12T05:12:57;14.07;;;8.23;;
74777;SDS011;63298;53.164;8.610;2023-08-12T05:15:22;12.82;;;7.80;;
74777;SDS011;63298;53.164;8.610;2023-08-12T05:17:48;14.13;;;8.25;;
74777;SDS011;63298;53.164;8.610;2023-08-12T05:20:13;14.70;;;8.30;;
74777;SDS011;63298;53.164;8.610;2023-08-12T05:22:38;12.73;;;8.45;;
74777;SDS011;63298;53.164;8.610;2023-08-12T05:25:04;15.60;;;8.77;;
74777;SDS011;63298;53.164;8.610;2023-08-12T05:27:29;10.77;;;7.30;;
74777;SDS011;63298;53.164;8.610;2023-08-12T05:29:54;12.77;;;7.78;;
74777;SDS011;63298;53.164;8.610;2023-08-12T05:32:20;13.07;;;8.55;;
74777;SDS011;63298;53.164;8.610;2023-08-12T05:34:45;16.25;;;8.63;;
74777;SDS011;63298;53.164;8.610;2023-08-12T05:37:11;11.05;;;7.45;;
74777;SDS011;63298;53.164;8.610;2023-08-12T05:39:36;9.80;;;7.90;;
74777;SDS011;63298;53.164;8.610;2023-08-12T05:42:01;11.82;;;8.07;;
74777;SDS011;63298;53.164;8.610;2023-08-12T05:44:27;14.85;;;8.02;;
74777;SDS011;63298;53.164;8.610;2023-08-12T05:46:52;17.60;;;8.60;;
74777;SDS011;63298;53.164;8.610;2023-08-12T05:49:17;9.82;;;8.00;;
74777;SDS011;63298;53.164;8.610;2023-08-12T05:51:43;11.40;;;8.00;;
74777;SDS011;63298;53.164;8.610;2023-08-12T05:54:08;11.13;;;6.78;;
74777;SDS011;63298;53.164;8.610;2023-08-12T05:56:33;12.82;;;7.60;;
74777;SDS011;63298;53.164;8.610;2023-08-12T05:58:58;10.23;;;7.32;;
74777;SDS011;63298;53.164;8.610;2023-08-12T06:01:24;13.38;;;7.72;;
74777;SDS011;63298;53.164;8.610;2023-08-12T06:03:49;9.15;;;7.55;;
74777;SDS011;63298;53.164;8.610;2023-08-12T06:06:14;12.48;;;7.40;;
74777;SDS011;63298;53.164;8.610;2023-08-12T06:08:40;14.50;;;7.82;;
74777;SDS011;63298;53.164;8.610;2023-08-12T06:11:05;11.13;;;7.10;;
74777;SDS011;63298;53.164;8.610;2023-08-12T06:13:30;11.27;;;6.80;;
74777;SDS011;63298;53.164;8.610;2023-08-12T06:15:56;12.82;;;7.22;;
74777;SDS011;63298;53.164;8.610;2023-08-12T06:18:21;11.80;;;7.28;;
74777;SDS011;63298;53.164;8.610;2023-08-12T06:20:46;11.27;;;6.72;;
74777;SDS011;63298;53.164;8.610;2023-08-12T06:23:12;12.80;;;6.40;;
74777;SDS011;63298;53.164;8.610;2023-08-12T06:25:37;11.00;;;6.38;;
74777;SDS011;63298;53.164;8.610;2023-08-12T06:28:03;9.75;;;6.40;;
74777;SDS011;63298;53.164;8.610;2023-08-12T06:30:28;13.00;;;6.60;;
74777;SDS011;63298;53.164;8.610;2023-08-12T06:32:53;8.73;;;6.63;;
74777;SDS011;63298;53.164;8.610;2023-08-12T06:35:19;9.98;;;6.88;;
74777;SDS011;63298;53.164;8.610;2023-08-12T06:37:44;8.93;;;6.53;;
74777;SDS011;63298;53.164;8.610;2023-08-12T06:40:09;10.52;;;6.35;;
74777;SDS011;63298;53.164;8.610;2023-08-12T06:42:35;10.73;;;5.82;;
74777;SDS011;63298;53.164;8.610;2023-08-12T06:45:00;8.70;;;6.30;;
74777;SDS011;63298;53.164;8.610;2023-08-12T06:47:26;9.95;;;6.68;;
74777;SDS011;63298;53.164;8.610;2023-08-12T06:49:51;10.32;;;5.53;;
74777;SDS011;63298;53.164;8.610;2023-08-12T06:52:16;8.75;;;6.22;;
74777;SDS011;63298;53.164;8.610;2023-08-12T06:54:42;9.38;;;6.22;;
74777;SDS011;63298;53.164;8.610;2023-08-12T06:57:07;8.70;;;6.03;;
74777;SDS011;63298;53.164;8.610;2023-08-12T06:59:32;10.35;;;6.40;;
74777;SDS011;63298;53.164;8.610;2023-08-12T07:01:57;11.05;;;6.47;;
74777;SDS011;63298;53.164;8.610;2023-08-12T07:04:23;10.27;;;6.28;;
74777;SDS011;63298;53.164;8.610;2023-08-12T07:06:48;9.90;;;6.15;;
74777;SDS011;63298;53.164;8.610;2023-08-12T07:09:14;9.63;;;6.18;;
74777;SDS011;63298;53.164;8.610;2023-08-12T07:11:39;8.73;;;6.25;;
74777;SDS011;63298;53.164;8.610;2023-08-12T07:14:05;9.60;;;6.28;;
74777;SDS011;63298;53.164;8.610;2023-08-12T07:16:30;10.50;;;4.88;;
74777;SDS011;63298;53.164;8.610;2023-08-12T07:18:56;8.57;;;5.43;;
74777;SDS011;63298;53.164;8.610;2023-08-12T07:21:21;8.40;;;6.05;;
74777;SDS011;63298;53.164;8.610;2023-08-12T07:23:46;6.93;;;5.45;;
74777;SDS011;63298;53.164;8.610;2023-08-12T07:26:12;9.05;;;6.18;;
74777;SDS011;63298;53.164;8.610;2023-08-12T07:28:37;7.18;;;5.03;;
74777;SDS011;63298;53.164;8.610;2023-08-12T07:31:02;7.68;;;5.45;;
74777;SDS011;63298;53.164;8.610;2023-08-12T07:33:28;9.13;;;4.93;;
74777;SDS011;63298;53.164;8.610;2023-08-12T07:35:53;7.80;;;5.35;;
74777;SDS011;63298;53.164;8.610;2023-08-12T07:38:18;9.30;;;5.13;;
74777;SDS011;63298;53.164;8.610;2023-08-12T07:40:44;7.20;;;4.88;;
74777;SDS011;63298;53.164;8.610;2023-08-12T07:43:09;8.80;;;5.28;;
74777;SDS011;63298;53.164;8.610;2023-08-12T07:45:34;8.55;;;5.07;;
74777;SDS011;63298;53.164;8.610;2023-08-12T07:48:00;5.68;;;4.38;;
74777;SDS011;63298;53.164;8.610;2023-08-12T07:50:25;4.50;;;4.10;;
74777;SDS011;63298;53.164;8.610;2023-08-12T07:52:50;4.47;;;3.45;;
74777;SDS011;63298;53.164;8.610;2023-08-12T07:55:16;6.93;;;4.47;;
74777;SDS011;63298;53.164;8.610;2023-08-12T07:57:41;6.45;;;4.53;;
74777;SDS011;63298;53.164;8.610;2023-08-12T08:00:06;6.40;;;4.55;;
74777;SDS011;63298;53.164;8.610;2023-08-12T08:02:32;9.45;;;5.00;;
74777;SDS011;63298;53.164;8.610;2023-08-12T08:04:58;5.45;;;4.53;;
74777;SDS011;63298;53.164;8.610;2023-08-12T08:07:23;7.85;;;4.80;;
74777;SDS011;63298;53.164;8.610;2023-08-12T08:09:48;5.47;;;4.30;;
74777;SDS011;63298;53.164;8.610;2023-08-12T08:12:16;7.43;;;3.95;;
74777;SDS011;63298;53.164;8.610;2023-08-12T08:14:41;5.57;;;3.60;;
74777;SDS011;63298;53.164;8.610;2023-08-12T08:17:06;6.15;;;4.60;;
74777;SDS011;63298;53.164;8.610;2023-08-12T08:19:32;8.55;;;4.43;;
74777;SDS011;63298;53.164;8.610;2023-08-12T08:21:57;6.30;;;4.07;;
74777;SDS011;63298;53.164;8.610;2023-08-12T08:24:23;6.15;;;3.53;;
74777;SDS011;63298;53.164;8.610;2023-08-12T08:26:48;7.63;;;4.30;;
74777;SDS011;63298;53.164;8.610;2023-08-12T08:29:13;5.47;;;3.22;;
74777;SDS011;63298;53.164;8.610;2023-08-12T08:31:39;8.52;;;3.90;;
74777;SDS011;63298;53.164;8.610;2023-08-12T08:34:04;4.93;;;3.13;;
74777;SDS011;63298;53.164;8.610;2023-08-12T08:36:30;6.43;;;3.70;;
74777;SDS011;63298;53.164;8.610;2023-08-12T08:38:55;4.88;;;3.22;;
74777;SDS011;63298;53.164;8.610;2023-08-12T08:41:20;5.55;;;3.75;;
74777;SDS011;63298;53.164;8.610;2023-08-12T08:43:47;3.58;;;3.28;;
74777;SDS011;63298;53.164;8.610;2023-08-12T08:46:16;4.47;;;3.25;;
74777;SDS011;63298;53.164;8.610;2023-08-12T08:48:44;5.40;;;3.00;;
74777;SDS011;63298;53.164;8.610;2023-08-12T08:51:11;4.75;;;3.03;;
74777;SDS011;63298;53.164;8.610;2023-08-12T08:53:37;4.57;;;3.15;;
74777;SDS011;63298;53.164;8.610;2023-08-12T08:56:04;5.45;;;4.00;;
74777;SDS011;63298;53.164;8.610;2023-08-12T08:58:31;6.53;;;4.35;;
74777;SDS011;63298;53.164;8.610;2023-08-12T09:00:56;5.47;;;4.53;;
74777;SDS011;63298;53.164;8.610;2023-08-12T09:03:22;9.77;;;4.72;;
74777;SDS011;63298;53.164;8.610;2023-08-12T09:05:47;6.60;;;4.80;;
74777;SDS011;63298;53.164;8.610;2023-08-12T09:08:12;6.38;;;4.90;;
74777;SDS011;63298;53.164;8.610;2023-08-12T09:10:39;7.00;;;4.72;;
74777;SDS011;63298;53.164;8.610;2023-08-12T09:13:04;11.07;;;4.97;;
74777;SDS011;63298;53.164;8.610;2023-08-12T09:15:31;4.78;;;4.13;;
74777;SDS011;63298;53.164;8.610;2023-08-12T09:17:56;6.28;;;3.70;;
74777;SDS011;63298;53.164;8.610;2023-08-12T09:20:22;6.93;;;4.40;;
74777;SDS011;63298;53.164;8.610;2023-08-12T09:22:47;5.20;;;3.80;;
74777;SDS011;63298;53.164;8.610;2023-08-12T09:25:20;7.38;;;3.80;;
74777;SDS011;63298;53.164;8.610;2023-08-12T09:27:46;6.03;;;4.93;;
74777;SDS011;63298;53.164;8.610;2023-08-12T09:30:11;5.70;;;4.18;;
74777;SDS011;63298;53.164;8.610;2023-08-12T09:32:36;22.77;;;8.43;;
74777;SDS011;63298;53.164;8.610;2023-08-12T09:35:02;27.55;;;6.93;;
74777;SDS011;63298;53.164;8.610;2023-08-12T09:37:27;8.63;;;4.80;;
74777;SDS011;63298;53.164;8.610;2023-08-12T09:39:53;9.43;;;5.00;;
74777;SDS011;63298;53.164;8.610;2023-08-12T09:42:18;6.57;;;4.97;;
74777;SDS011;63298;53.164;8.610;2023-08-12T09:44:44;8.68;;;5.93;;
74777;SDS011;63298;53.164;8.610;2023-08-12T09:47:10;9.02;;;6.53;;
74777;SDS011;63298;53.164;8.610;2023-08-12T09:49:36;9.85;;;6.47;;
74777;SDS011;63298;53.164;8.610;2023-08-12T09:52:04;8.65;;;6.68;;
74777;SDS011;63298;53.164;8.610;2023-08-12T09:54:31;13.80;;;8.15;;
74777;SDS011;63298;53.164;8.610;2023-08-12T09:57:01;10.85;;;8.38;;
74777;SDS011;63298;53.164;8.610;2023-08-12T09:59:29;13.68;;;8.00;;
74777;SDS011;63298;53.164;8.610;2023-08-12T10:01:58;11.93;;;7.80;;
74777;SDS011;63298;53.164;8.610;2023-08-12T10:04:27;12.70;;;8.93;;
74777;SDS011;63298;53.164;8.610;2023-08-12T10:06:54;12.80;;;8.63;;
74777;SDS011;63298;53.164;8.610;2023-08-12T10:09:20;11.98;;;8.98;;
74777;SDS011;63298;53.164;8.610;2023-08-12T10:11:45;11.30;;;8.75;;
74777;SDS011;63298;53.164;8.610;2023-08-12T10:14:12;11.75;;;9.05;;
74777;SDS011;63298;53.164;8.610;2023-08-12T10:16:38;15.88;;;9.30;;
74777;SDS011;63298;53.164;8.610;2023-08-12T10:19:06;12.30;;;9.40;;
74777;SDS011;63298;53.164;8.610;2023-08-12T10:21:36;10.93;;;8.02;;
74777;SDS011;63298;53.164;8.610;2023-08-12T10:24:02;12.75;;;10.02;;
74777;SDS011;63298;53.164;8.610;2023-08-12T10:26:30;12.02;;;8.95;;
74777;SDS011;63298;53.164;8.610;2023-08-12T10:28:55;14.43;;;10.07;;
74777;SDS011;63298;53.164;8.610;2023-08-12T10:31:21;14.88;;;9.02;;
74777;SDS011;63298;53.164;8.610;2023-08-12T10:33:47;17.35;;;9.98;;
74777;SDS011;63298;53.164;8.610;2023-08-12T10:36:12;12.60;;;9.27;;
74777;SDS011;63298;53.164;8.610;2023-08-12T10:38:40;11.88;;;9.35;;
74777;SDS011;63298;53.164;8.610;2023-08-12T10:46:28;11.02;;;7.65;;
74777;SDS011;63298;53.164;8.610;2023-08-12T10:48:56;11.10;;;7.38;;
74777;SDS011;63298;53.164;8.610;2023-08-12T10:52:00;10.95;;;7.05;;
74777;SDS011;63298;53.164;8.610;2023-08-12T10:54:23;9.13;;;7.18;;
74777;SDS011;63298;53.164;8.610;2023-08-12T11:04:51;12.77;;;8.13;;
74777;SDS011;63298;53.164;8.610;2023-08-12T11:07:19;11.57;;;8.90;;
74777;SDS011;63298;53.164;8.610;2023-08-12T11:09:45;14.77;;;8.60;;
74777;SDS011;63298;53.164;8.610;2023-08-12T11:12:11;10.98;;;8.77;;
74777;SDS011;63298;53.164;8.610;2023-08-12T11:14:48;16.15;;;10.15;;
74777;SDS011;63298;53.164;8.610;2023-08-12T11:17:27;16.50;;;8.82;;
74777;SDS011;63298;53.164;8.610;2023-08-12T11:19:54;12.10;;;9.90;;
74777;SDS011;63298;53.164;8.610;2023-08-12T11:22:21;14.43;;;10.23;;
74777;SDS011;63298;53.164;8.610;2023-08-12T11:24:47;13.15;;;9.85;;
74777;SDS011;63298;53.164;8.610;2023-08-12T11:27:13;12.85;;;9.23;;
74777;SDS011;63298;53.164;8.610;2023-08-12T11:29:39;14.15;;;11.40;;
74777;SDS011;63298;53.164;8.610;2023-08-12T11:32:05;11.68;;;9.45;;
74777;SDS011;63298;53.164;8.610;2023-08-12T11:34:31;15.32;;;10.82;;
74777;SDS011;63298;53.164;8.610;2023-08-12T11:36:57;13.52;;;10.95;;
74777;SDS011;63298;53.164;8.610;2023-08-12T11:39:23;11.75;;;10.45;;
74777;SDS011;63298;53.164;8.610;2023-08-12T11:41:49;13.50;;;11.32;;
74777;SDS011;63298;53.164;8.610;2023-08-12T11:44:20;16.50;;;12.45;;
74777;SDS011;63298;53.164;8.610;2023-08-12T11:46:46;12.00;;;10.05;;
74777;SDS011;63298;53.164;8.610;2023-08-12T11:49:12;14.85;;;11.25;;
74777;SDS011;63298;53.164;8.610;2023-08-12T11:51:37;15.70;;;11.20;;
74777;SDS011;63298;53.164;8.610;2023-08-12T11:54:03;16.08;;;10.85;;
74777;SDS011;63298;53.164;8.610;2023-08-12T11:56:29;13.50;;;10.93;;
74777;SDS011;63298;53.164;8.610;2023-08-12T11:58:54;10.88;;;9.43;;
74777;SDS011;63298;53.164;8.610;2023-08-12T12:01:23;10.60;;;8.60;;
74777;SDS011;63298;53.164;8.610;2023-08-12T12:03:51;13.10;;;9.95;;
74777;SDS011;63298;53.164;8.610;2023-08-12T12:06:17;13.40;;;9.15;;
74777;SDS011;63298;53.164;8.610;2023-08-12T12:08:46;11.70;;;9.02;;
74777;SDS011;63298;53.164;8.610;2023-08-12T12:11:11;10.88;;;8.68;;
74777;SDS011;63298;53.164;8.610;2023-08-12T12:13:36;9.70;;;8.10;;
74777;SDS011;63298;53.164;8.610;2023-08-12T12:16:09;9.65;;;7.25;;
74777;SDS011;63298;53.164;8.610;2023-08-12T12:18:35;8.48;;;6.55;;
74777;SDS011;63298;53.164;8.610;2023-08-12T12:21:00;8.68;;;6.10;;
74777;SDS011;63298;53.164;8.610;2023-08-12T12:23:29;8.57;;;6.65;;
74777;SDS011;63298;53.164;8.610;2023-08-12T12:26:01;6.68;;;5.13;;
74777;SDS011;63298;53.164;8.610;2023-08-12T12:28:27;7.15;;;6.38;;
74777;SDS011;63298;53.164;8.610;2023-08-12T12:30:53;8.88;;;6.53;;
74777;SDS011;63298;53.164;8.610;2023-08-12T12:33:19;7.50;;;6.80;;
74777;SDS011;63298;53.164;8.610;2023-08-12T12:35:44;6.85;;;6.13;;
74777;SDS011;63298;53.164;8.610;2023-08-12T12:38:09;7.32;;;5.80;;
74777;SDS011;63298;53.164;8.610;2023-08-12T12:40:35;6.50;;;4.90;;
74777;SDS011;63298;53.164;8.610;2023-08-12T12:43:00;5.57;;;4.95;;
74777;SDS011;63298;53.164;8.610;2023-08-12T12:45:25;5.80;;;4.07;;
74777;SDS011;63298;53.164;8.610;2023-08-12T12:47:50;5.28;;;4.78;;
74777;SDS011;63298;53.164;8.610;2023-08-12T12:50:16;7.20;;;4.75;;
74777;SDS011;63298;53.164;8.610;2023-08-12T12:52:41;4.80;;;4.30;;
74777;SDS011;63298;53.164;8.610;2023-08-12T12:55:07;4.35;;;3.90;;
74777;SDS011;63298;53.164;8.610;2023-08-12T12:57:32;3.90;;;3.50;;
74777;SDS011;63298;53.164;8.610;2023-08-12T12:59:58;4.93;;;3.10;;
74777;SDS011;63298;53.164;8.610;2023-08-12T13:02:23;4.45;;;3.00;;
74777;SDS011;63298;53.164;8.610;2023-08-12T13:04:48;2.72;;;2.53;;
74777;SDS011;63298;53.164;8.610;2023-08-12T13:07:14;3.55;;;2.10;;
74777;SDS011;63298;53.164;8.610;2023-08-12T13:09:39;3.17;;;2.28;;
74777;SDS011;63298;53.164;8.610;2023-08-12T13:12:05;2.92;;;2.72;;
74777;SDS011;63298;53.164;8.610;2023-08-12T13:14:30;3.83;;;3.50;;
74777;SDS011;63298;53.164;8.610;2023-08-12T13:16:55;5.30;;;3.20;;
74777;SDS011;63298;53.164;8.610;2023-08-12T13:19:21;3.78;;;3.20;;
74777;SDS011;63298;53.164;8.610;2023-08-12T13:21:46;3.00;;;2.80;;
74777;SDS011;63298;53.164;8.610;2023-08-12T13:24:11;3.72;;;3.35;;
74777;SDS011;63298;53.164;8.610;2023-08-12T13:26:37;2.95;;;2.75;;
74777;SDS011;63298;53.164;8.610;2023-08-12T13:29:02;2.80;;;2.60;;
74777;SDS011;63298;53.164;8.610;2023-08-12T13:31:28;2.83;;;2.53;;
74777;SDS011;63298;53.164;8.610;2023-08-12T13:33:53;2.72;;;2.42;;
74777;SDS011;63298;53.164;8.610;2023-08-12T13:36:18;2.15;;;2.05;;
74777;SDS011;63298;53.164;8.610;2023-08-12T13:38:44;5.60;;;2.72;;
74777;SDS011;63298;53.164;8.610;2023-08-12T13:41:09;2.13;;;2.03;;
74777;SDS011;63298;53.164;8.610;2023-08-12T13:43:34;2.50;;;2.17;;
74777;SDS011;63298;53.164;8.610;2023-08-12T13:46:00;3.40;;;2.22;;
74777;SDS011;63298;53.164;8.610;2023-08-12T13:48:25;2.17;;;1.90;;
74777;SDS011;63298;53.164;8.610;2023-08-12T13:50:51;2.13;;;2.03;;
74777;SDS011;63298;53.164;8.610;2023-08-12T13:53:16;2.00;;;1.83;;
74777;SDS011;63298;53.164;8.610;2023-08-12T13:55:41;2.00;;;1.90;;
74777;SDS011;63298;53.164;8.610;2023-08-12T13:58:07;2.70;;;2.50;;
74777;SDS011;63298;53.164;8.610;2023-08-12T14:00:32;2.10;;;2.00;;
74777;SDS011;63298;53.164;8.610;2023-08-12T14:02:57;2.13;;;2.00;;
74777;SDS011;63298;53.164;8.610;2023-08-12T14:05:23;1.20;;;1.10;;
74777;SDS011;63298;53.164;8.610;2023-08-12T14:07:48;0.82;;;0.82;;
74777;SDS011;63298;53.164;8.610;2023-08-12T14:10:13;0.50;;;0.50;;
74777;SDS011;63298;53.164;8.610;2023-08-12T14:12:39;0.40;;;0.40;;
74777;SDS011;63298;53.164;8.610;2023-08-12T14:15:04;0.30;;;0.30;;
74777;SDS011;63298;53.164;8.610;2023-08-12T14:17:30;0.40;;;0.40;;
74777;SDS011;63298;53.164;8.610;2023-08-12T14:19:55;0.20;;;0.20;;
74777;SDS011;63298;53.164;8.610;2023-08-12T14:22:21;0.20;;;0.20;;
74777;SDS011;63298;53.164;8.610;2023-08-12T14:24:46;0.40;;;0.25;;
74777;SDS011;63298;53.164;8.610;2023-08-12T14:27:12;0.35;;;0.35;;
74777;SDS011;63298;53.164;8.610;2023-08-12T14:29:38;0.40;;;0.40;;
74777;SDS011;63298;53.164;8.610;2023-08-12T14:32:03;0.63;;;0.47;;
74777;SDS011;63298;53.164;8.610;2023-08-12T14:34:29;0.70;;;0.40;;
74777;SDS011;63298;53.164;8.610;2023-08-12T14:36:54;0.60;;;0.60;;
74777;SDS011;63298;53.164;8.610;2023-08-12T14:39:19;2.38;;;0.75;;
74777;SDS011;63298;53.164;8.610;2023-08-12T14:41:45;0.50;;;0.50;;
74777;SDS011;63298;53.164;8.610;2023-08-12T14:44:10;0.50;;;0.50;;